sensor_id;sensor_type;location;lat;lon;timestamp;P1;durP1;ratioP1;P2;durP2;ratioP2
10701;SDS011;5402;50.004;8.246;2024-03-08T00:00:03;15.97;;;9.47;;
10701;SDS011;5402;50.004;8.246;2024-03-08T00:02:34;15.20;;;9.30;;
10701;SDS011;5402;50.004;8.246;2024-03-08T00:05:02;14.40;;;9.70;;
10701;SDS011;5402;50.004;8.246;2024-03-08T00:07:29;17.83;;;10.10;;
10701;SDS011;5402;50.004;8.246;2024-03-08T00:09:57;14.10;;;9.40;;
10701;SDS011;5402;50.004;8.246;2024-03-08T00:12:23;16.33;;;10.23;;
10701;SDS011;5402;50.004;8.246;2024-03-08T00:14:51;14.20;;;8.53;;
10701;SDS011;5402;50.004;8.246;2024-03-08T00:17:18;16.20;;;10.53;;
10701;SDS011;5402;50.004;8.246;2024-03-08T00:19:44;15.57;;;9.70;;
10701;SDS011;5402;50.004;8.246;2024-03-08T00:22:11;14.47;;;9.70;;
10701;SDS011;5402;50.004;8.246;2024-03-08T00:24:38;18.10;;;10.53;;
10701;SDS011;5402;50.004;8.246;2024-03-08T00:27:06;16.20;;;9.57;;
10701;SDS011;5402;50.004;8.246;2024-03-08T00:29:34;16.83;;;10.27;;
10701;SDS011;5402;50.004;8.246;2024-03-08T00:32:00;17.60;;;10.03;;
10701;SDS011;5402;50.004;8.246;2024-03-08T00:34:27;17.03;;;10.93;;
10701;SDS011;5402;50.004;8.246;2024-03-08T00:36:54;16.37;;;10.00;;
10701;SDS011;5402;50.004;8.246;2024-03-08T00:39:21;16.67;;;10.70;;
10701;SDS011;5402;50.004;8.246;2024-03-08T00:41:47;16.70;;;9.77;;
10701;SDS011;5402;50.004;8.246;2024-03-08T00:44:16;15.53;;;8.70;;
10701;SDS011;5402;50.004;8.246;2024-03-08T00:46:43;17.10;;;10.37;;
10701;SDS011;5402;50.004;8.246;2024-03-08T00:49:09;17.10;;;10.37;;
10701;SDS011;5402;50.004;8.246;2024-03-08T00:51:37;16.20;;;9.97;;
10701;SDS011;5402;50.004;8.246;2024-03-08T00:54:05;18.83;;;10.67;;
10701;SDS011;5402;50.004;8.246;2024-03-08T00:56:32;18.20;;;9.70;;
10701;SDS011;5402;50.004;8.246;2024-03-08T00:59:00;18.00;;;9.90;;
10701;SDS011;5402;50.004;8.246;2024-03-08T01:01:28;17.33;;;10.07;;
10701;SDS011;5402;50.004;8.246;2024-03-08T01:03:55;18.87;;;10.80;;
10701;SDS011;5402;50.004;8.246;2024-03-08T01:06:23;14.37;;;9.87;;
10701;SDS011;5402;50.004;8.246;2024-03-08T01:08:50;14.03;;;9.00;;
10701;SDS011;5402;50.004;8.246;2024-03-08T01:11:17;17.60;;;9.70;;
10701;SDS011;5402;50.004;8.246;2024-03-08T01:13:44;18.20;;;10.33;;
10701;SDS011;5402;50.004;8.246;2024-03-08T01:16:12;13.77;;;9.13;;
10701;SDS011;5402;50.004;8.246;2024-03-08T01:18:40;18.17;;;9.50;;
10701;SDS011;5402;50.004;8.246;2024-03-08T01:21:07;15.73;;;10.00;;
10701;SDS011;5402;50.004;8.246;2024-03-08T01:23:33;16.23;;;10.03;;
10701;SDS011;5402;50.004;8.246;2024-03-08T01:26:00;15.83;;;9.43;;
10701;SDS011;5402;50.004;8.246;2024-03-08T01:28:27;14.50;;;9.40;;
10701;SDS011;5402;50.004;8.246;2024-03-08T01:30:54;17.27;;;9.63;;
10701;SDS011;5402;50.004;8.246;2024-03-08T01:33:21;14.60;;;9.47;;
10701;SDS011;5402;50.004;8.246;2024-03-08T01:35:50;15.53;;;9.63;;
10701;SDS011;5402;50.004;8.246;2024-03-08T01:38:17;15.17;;;9.77;;
10701;SDS011;5402;50.004;8.246;2024-03-08T01:40:46;15.63;;;9.80;;
10701;SDS011;5402;50.004;8.246;2024-03-08T01:43:19;15.40;;;10.37;;
10701;SDS011;5402;50.004;8.246;2024-03-08T01:45:46;16.77;;;9.60;;
10701;SDS011;5402;50.004;8.246;2024-03-08T01:48:13;17.90;;;9.80;;
10701;SDS011;5402;50.004;8.246;2024-03-08T01:50:42;16.87;;;10.27;;
10701;SDS011;5402;50.004;8.246;2024-03-08T01:53:12;16.50;;;10.07;;
10701;SDS011;5402;50.004;8.246;2024-03-08T01:55:40;15.10;;;9.33;;
10701;SDS011;5402;50.004;8.246;2024-03-08T01:58:09;17.20;;;10.43;;
10701;SDS011;5402;50.004;8.246;2024-03-08T02:00:37;16.43;;;10.00;;
10701;SDS011;5402;50.004;8.246;2024-03-08T02:03:06;17.40;;;10.43;;
10701;SDS011;5402;50.004;8.246;2024-03-08T02:05:33;17.83;;;10.07;;
10701;SDS011;5402;50.004;8.246;2024-03-08T02:07:59;16.67;;;10.13;;
10701;SDS011;5402;50.004;8.246;2024-03-08T02:10:29;18.53;;;10.00;;
10701;SDS011;5402;50.004;8.246;2024-03-08T02:12:55;17.07;;;9.63;;
10701;SDS011;5402;50.004;8.246;2024-03-08T02:15:23;15.87;;;9.70;;
10701;SDS011;5402;50.004;8.246;2024-03-08T02:17:51;15.33;;;10.03;;
10701;SDS011;5402;50.004;8.246;2024-03-08T02:20:18;14.73;;;10.23;;
10701;SDS011;5402;50.004;8.246;2024-03-08T02:22:46;18.37;;;10.47;;
10701;SDS011;5402;50.004;8.246;2024-03-08T02:25:13;15.00;;;9.60;;
10701;SDS011;5402;50.004;8.246;2024-03-08T02:27:40;15.97;;;10.03;;
10701;SDS011;5402;50.004;8.246;2024-03-08T02:30:08;16.17;;;10.80;;
10701;SDS011;5402;50.004;8.246;2024-03-08T02:32:37;17.07;;;10.13;;
10701;SDS011;5402;50.004;8.246;2024-03-08T02:35:04;14.00;;;9.03;;
10701;SDS011;5402;50.004;8.246;2024-03-08T02:37:31;18.67;;;10.43;;
10701;SDS011;5402;50.004;8.246;2024-03-08T02:39:59;16.73;;;10.13;;
10701;SDS011;5402;50.004;8.246;2024-03-08T02:42:26;17.07;;;9.70;;
10701;SDS011;5402;50.004;8.246;2024-03-08T02:44:52;17.90;;;10.17;;
10701;SDS011;5402;50.004;8.246;2024-03-08T02:47:19;16.43;;;9.70;;
10701;SDS011;5402;50.004;8.246;2024-03-08T02:49:46;16.83;;;9.93;;
10701;SDS011;5402;50.004;8.246;2024-03-08T02:52:12;14.83;;;9.83;;
10701;SDS011;5402;50.004;8.246;2024-03-08T02:54:41;16.57;;;9.53;;
10701;SDS011;5402;50.004;8.246;2024-03-08T02:57:09;18.23;;;9.93;;
10701;SDS011;5402;50.004;8.246;2024-03-08T02:59:37;20.30;;;10.50;;
10701;SDS011;5402;50.004;8.246;2024-03-08T03:02:05;18.37;;;10.43;;
10701;SDS011;5402;50.004;8.246;2024-03-08T03:04:32;15.47;;;9.77;;
10701;SDS011;5402;50.004;8.246;2024-03-08T03:06:59;15.93;;;9.53;;
10701;SDS011;5402;50.004;8.246;2024-03-08T03:09:26;18.50;;;9.93;;
10701;SDS011;5402;50.004;8.246;2024-03-08T03:11:53;17.43;;;9.93;;
10701;SDS011;5402;50.004;8.246;2024-03-08T03:14:22;19.43;;;10.97;;
10701;SDS011;5402;50.004;8.246;2024-03-08T03:16:48;16.07;;;9.90;;
10701;SDS011;5402;50.004;8.246;2024-03-08T03:19:15;15.97;;;10.77;;
10701;SDS011;5402;50.004;8.246;2024-03-08T03:21:42;18.50;;;10.50;;
10701;SDS011;5402;50.004;8.246;2024-03-08T03:24:09;17.47;;;9.83;;
10701;SDS011;5402;50.004;8.246;2024-03-08T03:26:36;16.03;;;9.70;;
10701;SDS011;5402;50.004;8.246;2024-03-08T03:29:04;17.73;;;10.53;;
10701;SDS011;5402;50.004;8.246;2024-03-08T03:31:34;16.53;;;10.23;;
10701;SDS011;5402;50.004;8.246;2024-03-08T03:34:01;17.70;;;10.47;;
10701;SDS011;5402;50.004;8.246;2024-03-08T03:36:28;18.97;;;11.13;;
10701;SDS011;5402;50.004;8.246;2024-03-08T03:38:55;20.00;;;10.37;;
10701;SDS011;5402;50.004;8.246;2024-03-08T03:41:35;19.60;;;10.03;;
10701;SDS011;5402;50.004;8.246;2024-03-08T03:44:01;16.93;;;9.97;;
10701;SDS011;5402;50.004;8.246;2024-03-08T03:46:28;18.87;;;10.80;;
10701;SDS011;5402;50.004;8.246;2024-03-08T03:48:56;17.67;;;10.23;;
10701;SDS011;5402;50.004;8.246;2024-03-08T03:51:23;18.10;;;10.33;;
10701;SDS011;5402;50.004;8.246;2024-03-08T03:53:49;18.10;;;10.20;;
10701;SDS011;5402;50.004;8.246;2024-03-08T03:56:16;18.60;;;9.97;;
10701;SDS011;5402;50.004;8.246;2024-03-08T03:58:43;17.90;;;10.27;;
10701;SDS011;5402;50.004;8.246;2024-03-08T04:01:09;18.93;;;11.17;;
10701;SDS011;5402;50.004;8.246;2024-03-08T04:03:36;17.93;;;10.20;;
10701;SDS011;5402;50.004;8.246;2024-03-08T04:06:04;19.53;;;11.27;;
10701;SDS011;5402;50.004;8.246;2024-03-08T04:08:31;17.80;;;10.20;;
10701;SDS011;5402;50.004;8.246;2024-03-08T04:10:59;18.90;;;10.47;;
10701;SDS011;5402;50.004;8.246;2024-03-08T04:13:26;17.37;;;10.07;;
10701;SDS011;5402;50.004;8.246;2024-03-08T04:15:53;16.83;;;10.10;;
10701;SDS011;5402;50.004;8.246;2024-03-08T04:18:20;19.10;;;10.43;;
10701;SDS011;5402;50.004;8.246;2024-03-08T04:20:46;18.50;;;10.50;;
10701;SDS011;5402;50.004;8.246;2024-03-08T04:23:14;17.03;;;10.27;;
10701;SDS011;5402;50.004;8.246;2024-03-08T04:25:42;18.60;;;10.17;;
10701;SDS011;5402;50.004;8.246;2024-03-08T04:28:09;18.93;;;10.53;;
10701;SDS011;5402;50.004;8.246;2024-03-08T04:30:36;17.10;;;10.97;;
10701;SDS011;5402;50.004;8.246;2024-03-08T04:33:04;19.63;;;10.77;;
10701;SDS011;5402;50.004;8.246;2024-03-08T04:35:32;16.90;;;10.37;;
10701;SDS011;5402;50.004;8.246;2024-03-08T04:37:58;16.67;;;10.37;;
10701;SDS011;5402;50.004;8.246;2024-03-08T04:40:26;17.70;;;10.63;;
10701;SDS011;5402;50.004;8.246;2024-03-08T04:42:53;17.20;;;10.27;;
10701;SDS011;5402;50.004;8.246;2024-03-08T04:45:20;17.17;;;10.50;;
10701;SDS011;5402;50.004;8.246;2024-03-08T04:47:47;21.10;;;11.53;;
10701;SDS011;5402;50.004;8.246;2024-03-08T04:50:14;17.30;;;9.90;;
10701;SDS011;5402;50.004;8.246;2024-03-08T04:52:40;20.67;;;11.53;;
10701;SDS011;5402;50.004;8.246;2024-03-08T04:55:07;17.07;;;10.07;;
10701;SDS011;5402;50.004;8.246;2024-03-08T04:57:36;18.30;;;10.83;;
10701;SDS011;5402;50.004;8.246;2024-03-08T05:00:03;17.07;;;9.93;;
10701;SDS011;5402;50.004;8.246;2024-03-08T05:02:36;18.10;;;10.07;;
10701;SDS011;5402;50.004;8.246;2024-03-08T05:05:04;19.27;;;9.87;;
10701;SDS011;5402;50.004;8.246;2024-03-08T05:07:32;18.67;;;10.67;;
10701;SDS011;5402;50.004;8.246;2024-03-08T05:09:58;21.17;;;11.20;;
10701;SDS011;5402;50.004;8.246;2024-03-08T05:12:25;17.63;;;10.27;;
10701;SDS011;5402;50.004;8.246;2024-03-08T05:14:53;22.40;;;11.57;;
10701;SDS011;5402;50.004;8.246;2024-03-08T05:17:20;18.77;;;11.17;;
10701;SDS011;5402;50.004;8.246;2024-03-08T05:19:49;18.60;;;10.73;;
10701;SDS011;5402;50.004;8.246;2024-03-08T05:22:15;18.70;;;11.27;;
10701;SDS011;5402;50.004;8.246;2024-03-08T05:24:42;20.80;;;10.37;;
10701;SDS011;5402;50.004;8.246;2024-03-08T05:27:09;18.57;;;10.60;;
10701;SDS011;5402;50.004;8.246;2024-03-08T05:29:36;18.87;;;10.70;;
10701;SDS011;5402;50.004;8.246;2024-03-08T05:32:04;18.13;;;10.63;;
10701;SDS011;5402;50.004;8.246;2024-03-08T05:34:32;20.17;;;10.37;;
10701;SDS011;5402;50.004;8.246;2024-03-08T05:37:00;18.03;;;10.97;;
10701;SDS011;5402;50.004;8.246;2024-03-08T05:39:27;23.67;;;11.43;;
10701;SDS011;5402;50.004;8.246;2024-03-08T05:41:54;20.10;;;11.00;;
10701;SDS011;5402;50.004;8.246;2024-03-08T05:44:22;20.27;;;11.00;;
10701;SDS011;5402;50.004;8.246;2024-03-08T05:46:49;20.40;;;11.33;;
10701;SDS011;5402;50.004;8.246;2024-03-08T05:49:18;19.70;;;10.87;;
10701;SDS011;5402;50.004;8.246;2024-03-08T05:51:45;19.67;;;11.20;;
10701;SDS011;5402;50.004;8.246;2024-03-08T05:54:13;21.80;;;11.20;;
10701;SDS011;5402;50.004;8.246;2024-03-08T05:56:40;19.33;;;10.80;;
10701;SDS011;5402;50.004;8.246;2024-03-08T05:59:08;19.67;;;11.33;;
10701;SDS011;5402;50.004;8.246;2024-03-08T06:01:35;22.50;;;12.40;;
10701;SDS011;5402;50.004;8.246;2024-03-08T06:04:02;23.97;;;11.97;;
10701;SDS011;5402;50.004;8.246;2024-03-08T06:06:31;23.10;;;11.93;;
10701;SDS011;5402;50.004;8.246;2024-03-08T06:08:57;22.10;;;11.67;;
10701;SDS011;5402;50.004;8.246;2024-03-08T06:11:25;18.67;;;10.10;;
10701;SDS011;5402;50.004;8.246;2024-03-08T06:13:53;20.97;;;11.30;;
10701;SDS011;5402;50.004;8.246;2024-03-08T06:16:24;20.53;;;11.67;;
10701;SDS011;5402;50.004;8.246;2024-03-08T06:18:54;18.53;;;10.87;;
10701;SDS011;5402;50.004;8.246;2024-03-08T06:21:22;24.67;;;12.77;;
10701;SDS011;5402;50.004;8.246;2024-03-08T06:23:53;21.87;;;11.70;;
10701;SDS011;5402;50.004;8.246;2024-03-08T06:26:22;22.20;;;12.23;;
10701;SDS011;5402;50.004;8.246;2024-03-08T06:28:49;22.13;;;12.13;;
10701;SDS011;5402;50.004;8.246;2024-03-08T06:31:16;22.97;;;13.10;;
10701;SDS011;5402;50.004;8.246;2024-03-08T06:33:44;21.60;;;12.57;;
10701;SDS011;5402;50.004;8.246;2024-03-08T06:36:11;18.63;;;11.33;;
10701;SDS011;5402;50.004;8.246;2024-03-08T06:38:38;21.43;;;11.67;;
10701;SDS011;5402;50.004;8.246;2024-03-08T06:41:08;19.07;;;12.47;;
10701;SDS011;5402;50.004;8.246;2024-03-08T06:43:40;22.10;;;12.10;;
10701;SDS011;5402;50.004;8.246;2024-03-08T06:46:07;23.53;;;12.50;;
10701;SDS011;5402;50.004;8.246;2024-03-08T06:48:33;20.93;;;11.87;;
10701;SDS011;5402;50.004;8.246;2024-03-08T06:51:02;21.07;;;11.93;;
10701;SDS011;5402;50.004;8.246;2024-03-08T06:53:29;22.33;;;12.93;;
10701;SDS011;5402;50.004;8.246;2024-03-08T06:55:56;21.90;;;11.90;;
10701;SDS011;5402;50.004;8.246;2024-03-08T06:58:24;19.17;;;11.67;;
10701;SDS011;5402;50.004;8.246;2024-03-08T07:00:50;21.57;;;12.37;;
10701;SDS011;5402;50.004;8.246;2024-03-08T07:03:18;22.13;;;12.50;;
10701;SDS011;5402;50.004;8.246;2024-03-08T07:05:47;22.33;;;12.17;;
10701;SDS011;5402;50.004;8.246;2024-03-08T07:08:14;22.23;;;11.77;;
10701;SDS011;5402;50.004;8.246;2024-03-08T07:10:41;23.50;;;12.67;;
10701;SDS011;5402;50.004;8.246;2024-03-08T07:13:10;23.93;;;13.17;;
10701;SDS011;5402;50.004;8.246;2024-03-08T07:15:38;22.37;;;11.73;;
10701;SDS011;5402;50.004;8.246;2024-03-08T07:18:05;23.30;;;13.03;;
10701;SDS011;5402;50.004;8.246;2024-03-08T07:20:34;22.17;;;12.40;;
10701;SDS011;5402;50.004;8.246;2024-03-08T07:23:02;20.93;;;11.70;;
10701;SDS011;5402;50.004;8.246;2024-03-08T07:25:30;22.47;;;12.27;;
10701;SDS011;5402;50.004;8.246;2024-03-08T07:27:57;23.63;;;12.47;;
10701;SDS011;5402;50.004;8.246;2024-03-08T07:30:26;21.17;;;11.83;;
10701;SDS011;5402;50.004;8.246;2024-03-08T07:33:12;20.67;;;12.73;;
10701;SDS011;5402;50.004;8.246;2024-03-08T07:35:39;19.03;;;12.23;;
10701;SDS011;5402;50.004;8.246;2024-03-08T07:38:07;23.30;;;12.70;;
10701;SDS011;5402;50.004;8.246;2024-03-08T07:40:35;21.47;;;12.17;;
10701;SDS011;5402;50.004;8.246;2024-03-08T07:43:03;20.37;;;12.17;;
10701;SDS011;5402;50.004;8.246;2024-03-08T07:45:30;22.87;;;12.37;;
10701;SDS011;5402;50.004;8.246;2024-03-08T07:47:57;22.63;;;12.97;;
10701;SDS011;5402;50.004;8.246;2024-03-08T07:50:25;21.43;;;12.03;;
10701;SDS011;5402;50.004;8.246;2024-03-08T07:52:52;25.40;;;12.43;;
10701;SDS011;5402;50.004;8.246;2024-03-08T07:55:18;22.93;;;12.87;;
10701;SDS011;5402;50.004;8.246;2024-03-08T07:57:45;19.50;;;12.10;;
10701;SDS011;5402;50.004;8.246;2024-03-08T08:00:14;19.43;;;11.87;;
10701;SDS011;5402;50.004;8.246;2024-03-08T08:02:43;22.97;;;12.80;;
10701;SDS011;5402;50.004;8.246;2024-03-08T08:05:10;23.83;;;12.73;;
10701;SDS011;5402;50.004;8.246;2024-03-08T08:07:38;19.57;;;12.00;;
10701;SDS011;5402;50.004;8.246;2024-03-08T08:10:06;22.17;;;12.77;;
10701;SDS011;5402;50.004;8.246;2024-03-08T08:12:41;21.83;;;12.27;;
10701;SDS011;5402;50.004;8.246;2024-03-08T08:15:08;20.90;;;11.93;;
10701;SDS011;5402;50.004;8.246;2024-03-08T08:17:35;21.60;;;12.57;;
10701;SDS011;5402;50.004;8.246;2024-03-08T08:20:02;16.87;;;9.63;;
10701;SDS011;5402;50.004;8.246;2024-03-08T08:22:30;28.10;;;12.30;;
10701;SDS011;5402;50.004;8.246;2024-03-08T08:24:58;21.83;;;12.57;;
10701;SDS011;5402;50.004;8.246;2024-03-08T08:27:25;21.43;;;11.73;;
10701;SDS011;5402;50.004;8.246;2024-03-08T08:29:52;18.13;;;11.07;;
10701;SDS011;5402;50.004;8.246;2024-03-08T08:32:18;20.90;;;12.30;;
10701;SDS011;5402;50.004;8.246;2024-03-08T08:34:45;23.13;;;11.77;;
10701;SDS011;5402;50.004;8.246;2024-03-08T08:37:13;20.27;;;11.67;;
10701;SDS011;5402;50.004;8.246;2024-03-08T08:39:40;19.63;;;12.17;;
10701;SDS011;5402;50.004;8.246;2024-03-08T08:42:08;23.47;;;12.87;;
10701;SDS011;5402;50.004;8.246;2024-03-08T08:44:36;21.40;;;11.67;;
10701;SDS011;5402;50.004;8.246;2024-03-08T08:47:03;20.27;;;11.53;;
10701;SDS011;5402;50.004;8.246;2024-03-08T08:49:29;18.77;;;10.93;;
10701;SDS011;5402;50.004;8.246;2024-03-08T08:51:56;20.97;;;11.23;;
10701;SDS011;5402;50.004;8.246;2024-03-08T08:54:23;17.87;;;10.47;;
10701;SDS011;5402;50.004;8.246;2024-03-08T08:56:52;18.93;;;10.07;;
10701;SDS011;5402;50.004;8.246;2024-03-08T08:59:20;18.90;;;11.20;;
10701;SDS011;5402;50.004;8.246;2024-03-08T09:01:50;18.20;;;10.93;;
10701;SDS011;5402;50.004;8.246;2024-03-08T09:04:18;18.60;;;11.13;;
10701;SDS011;5402;50.004;8.246;2024-03-08T09:06:46;18.43;;;11.33;;
10701;SDS011;5402;50.004;8.246;2024-03-08T09:09:13;18.80;;;11.77;;
10701;SDS011;5402;50.004;8.246;2024-03-08T09:11:42;19.00;;;11.53;;
10701;SDS011;5402;50.004;8.246;2024-03-08T09:14:08;16.40;;;11.13;;
10701;SDS011;5402;50.004;8.246;2024-03-08T09:16:38;17.93;;;11.10;;
10701;SDS011;5402;50.004;8.246;2024-03-08T09:19:05;16.60;;;10.17;;
10701;SDS011;5402;50.004;8.246;2024-03-08T09:21:31;19.10;;;11.17;;
10701;SDS011;5402;50.004;8.246;2024-03-08T09:23:59;18.60;;;11.33;;
10701;SDS011;5402;50.004;8.246;2024-03-08T09:26:26;21.37;;;11.77;;
10701;SDS011;5402;50.004;8.246;2024-03-08T09:28:53;17.70;;;10.63;;
10701;SDS011;5402;50.004;8.246;2024-03-08T09:31:20;19.17;;;11.23;;
10701;SDS011;5402;50.004;8.246;2024-03-08T09:33:49;17.10;;;10.57;;
10701;SDS011;5402;50.004;8.246;2024-03-08T09:36:19;15.97;;;9.90;;
10701;SDS011;5402;50.004;8.246;2024-03-08T09:38:46;18.27;;;10.53;;
10701;SDS011;5402;50.004;8.246;2024-03-08T09:41:14;18.47;;;10.30;;
10701;SDS011;5402;50.004;8.246;2024-03-08T09:43:41;18.87;;;10.47;;
10701;SDS011;5402;50.004;8.246;2024-03-08T09:46:08;17.83;;;10.97;;
10701;SDS011;5402;50.004;8.246;2024-03-08T09:48:36;16.67;;;10.67;;
10701;SDS011;5402;50.004;8.246;2024-03-08T09:51:03;19.70;;;11.23;;
10701;SDS011;5402;50.004;8.246;2024-03-08T09:53:32;16.90;;;10.93;;
10701;SDS011;5402;50.004;8.246;2024-03-08T09:55:59;20.37;;;11.10;;
10701;SDS011;5402;50.004;8.246;2024-03-08T09:58:28;16.97;;;10.83;;
10701;SDS011;5402;50.004;8.246;2024-03-08T10:01:19;17.50;;;10.23;;
10701;SDS011;5402;50.004;8.246;2024-03-08T10:03:46;16.90;;;10.53;;
10701;SDS011;5402;50.004;8.246;2024-03-08T10:06:22;16.70;;;10.10;;
10701;SDS011;5402;50.004;8.246;2024-03-08T10:08:49;15.10;;;9.53;;
10701;SDS011;5402;50.004;8.246;2024-03-08T10:11:17;17.23;;;10.37;;
10701;SDS011;5402;50.004;8.246;2024-03-08T10:13:44;16.63;;;9.80;;
10701;SDS011;5402;50.004;8.246;2024-03-08T10:16:11;15.10;;;9.17;;
10701;SDS011;5402;50.004;8.246;2024-03-08T10:18:38;16.47;;;9.80;;
10701;SDS011;5402;50.004;8.246;2024-03-08T10:21:06;14.80;;;9.53;;
10701;SDS011;5402;50.004;8.246;2024-03-08T10:23:36;17.33;;;9.87;;
10701;SDS011;5402;50.004;8.246;2024-03-08T10:26:09;15.83;;;10.10;;
10701;SDS011;5402;50.004;8.246;2024-03-08T10:28:39;15.53;;;8.93;;
10701;SDS011;5402;50.004;8.246;2024-03-08T10:31:09;16.13;;;10.03;;
10701;SDS011;5402;50.004;8.246;2024-03-08T10:33:36;12.93;;;8.53;;
10701;SDS011;5402;50.004;8.246;2024-03-08T10:36:05;13.90;;;8.70;;
10701;SDS011;5402;50.004;8.246;2024-03-08T10:38:33;15.57;;;9.30;;
10701;SDS011;5402;50.004;8.246;2024-03-08T10:41:05;13.10;;;8.50;;
10701;SDS011;5402;50.004;8.246;2024-03-08T10:43:32;13.50;;;8.20;;
10701;SDS011;5402;50.004;8.246;2024-03-08T10:46:16;12.73;;;7.40;;
10701;SDS011;5402;50.004;8.246;2024-03-08T10:48:56;14.70;;;8.50;;
10701;SDS011;5402;50.004;8.246;2024-03-08T10:51:28;11.00;;;6.90;;
10701;SDS011;5402;50.004;8.246;2024-03-08T10:53:57;11.17;;;7.23;;
10701;SDS011;5402;50.004;8.246;2024-03-08T10:56:28;12.03;;;8.00;;
10701;SDS011;5402;50.004;8.246;2024-03-08T10:58:55;16.23;;;8.60;;
10701;SDS011;5402;50.004;8.246;2024-03-08T11:01:23;11.43;;;7.30;;
10701;SDS011;5402;50.004;8.246;2024-03-08T11:03:51;14.33;;;8.93;;
10701;SDS011;5402;50.004;8.246;2024-03-08T11:06:19;14.73;;;9.03;;
10701;SDS011;5402;50.004;8.246;2024-03-08T11:08:49;12.73;;;8.60;;
10701;SDS011;5402;50.004;8.246;2024-03-08T11:11:27;13.43;;;8.70;;
10701;SDS011;5402;50.004;8.246;2024-03-08T11:13:59;15.10;;;8.93;;
10701;SDS011;5402;50.004;8.246;2024-03-08T11:16:39;13.27;;;7.93;;
10701;SDS011;5402;50.004;8.246;2024-03-08T11:19:24;11.40;;;7.77;;
10701;SDS011;5402;50.004;8.246;2024-03-08T11:21:57;13.00;;;8.93;;
10701;SDS011;5402;50.004;8.246;2024-03-08T11:24:24;12.93;;;8.23;;
10701;SDS011;5402;50.004;8.246;2024-03-08T11:26:55;12.00;;;8.53;;
10701;SDS011;5402;50.004;8.246;2024-03-08T11:29:37;11.00;;;6.67;;
10701;SDS011;5402;50.004;8.246;2024-03-08T11:32:05;12.27;;;8.30;;
10701;SDS011;5402;50.004;8.246;2024-03-08T11:34:34;13.27;;;8.63;;
10701;SDS011;5402;50.004;8.246;2024-03-08T11:37:03;13.83;;;8.73;;
10701;SDS011;5402;50.004;8.246;2024-03-08T11:39:30;14.47;;;9.20;;
10701;SDS011;5402;50.004;8.246;2024-03-08T11:42:00;11.67;;;8.23;;
10701;SDS011;5402;50.004;8.246;2024-03-08T11:44:27;12.87;;;8.23;;
10701;SDS011;5402;50.004;8.246;2024-03-08T11:46:54;12.97;;;8.93;;
10701;SDS011;5402;50.004;8.246;2024-03-08T11:49:31;16.50;;;9.93;;
10701;SDS011;5402;50.004;8.246;2024-03-08T11:52:02;13.90;;;9.10;;
10701;SDS011;5402;50.004;8.246;2024-03-08T11:54:29;13.37;;;8.53;;
10701;SDS011;5402;50.004;8.246;2024-03-08T11:56:56;14.30;;;9.03;;
10701;SDS011;5402;50.004;8.246;2024-03-08T11:59:27;13.77;;;9.13;;
10701;SDS011;5402;50.004;8.246;2024-03-08T12:01:58;13.63;;;9.13;;
10701;SDS011;5402;50.004;8.246;2024-03-08T12:04:31;14.07;;;9.57;;
10701;SDS011;5402;50.004;8.246;2024-03-08T12:07:01;12.03;;;7.30;;
10701;SDS011;5402;50.004;8.246;2024-03-08T12:09:34;17.17;;;9.57;;
10701;SDS011;5402;50.004;8.246;2024-03-08T12:12:02;14.57;;;9.60;;
10701;SDS011;5402;50.004;8.246;2024-03-08T12:14:32;17.83;;;9.70;;
10701;SDS011;5402;50.004;8.246;2024-03-08T12:17:00;13.77;;;9.37;;
10701;SDS011;5402;50.004;8.246;2024-03-08T12:19:27;13.53;;;9.60;;
10701;SDS011;5402;50.004;8.246;2024-03-08T12:21:54;13.83;;;9.10;;
10701;SDS011;5402;50.004;8.246;2024-03-08T12:24:22;17.00;;;9.53;;
10701;SDS011;5402;50.004;8.246;2024-03-08T12:26:48;14.40;;;9.27;;
10701;SDS011;5402;50.004;8.246;2024-03-08T12:29:17;14.30;;;9.80;;
10701;SDS011;5402;50.004;8.246;2024-03-08T12:31:49;14.53;;;9.43;;
10701;SDS011;5402;50.004;8.246;2024-03-08T12:34:18;15.87;;;10.37;;
10701;SDS011;5402;50.004;8.246;2024-03-08T12:36:45;14.57;;;9.33;;
10701;SDS011;5402;50.004;8.246;2024-03-08T12:39:13;15.07;;;10.67;;
10701;SDS011;5402;50.004;8.246;2024-03-08T12:41:42;15.27;;;10.23;;
10701;SDS011;5402;50.004;8.246;2024-03-08T12:44:09;15.03;;;9.23;;
10701;SDS011;5402;50.004;8.246;2024-03-08T12:46:37;14.10;;;9.90;;
10701;SDS011;5402;50.004;8.246;2024-03-08T12:49:07;15.03;;;10.17;;
10701;SDS011;5402;50.004;8.246;2024-03-08T12:51:35;16.73;;;10.23;;
10701;SDS011;5402;50.004;8.246;2024-03-08T12:54:04;15.40;;;10.10;;
10701;SDS011;5402;50.004;8.246;2024-03-08T12:56:32;12.73;;;8.33;;
10701;SDS011;5402;50.004;8.246;2024-03-08T12:58:59;15.03;;;10.53;;
10701;SDS011;5402;50.004;8.246;2024-03-08T13:01:27;15.07;;;9.43;;
10701;SDS011;5402;50.004;8.246;2024-03-08T13:03:55;15.97;;;9.90;;
10701;SDS011;5402;50.004;8.246;2024-03-08T13:06:23;17.30;;;10.33;;
10701;SDS011;5402;50.004;8.246;2024-03-08T13:08:50;14.10;;;10.27;;
10701;SDS011;5402;50.004;8.246;2024-03-08T13:11:18;15.77;;;10.00;;
10701;SDS011;5402;50.004;8.246;2024-03-08T13:13:45;14.23;;;9.70;;
10701;SDS011;5402;50.004;8.246;2024-03-08T13:16:12;15.37;;;10.07;;
10701;SDS011;5402;50.004;8.246;2024-03-08T13:18:40;15.97;;;10.57;;
10701;SDS011;5402;50.004;8.246;2024-03-08T13:21:08;19.53;;;13.00;;
10701;SDS011;5402;50.004;8.246;2024-03-08T13:23:37;15.00;;;10.20;;
10701;SDS011;5402;50.004;8.246;2024-03-08T13:26:05;19.30;;;11.37;;
10701;SDS011;5402;50.004;8.246;2024-03-08T13:28:32;15.30;;;10.07;;
10701;SDS011;5402;50.004;8.246;2024-03-08T13:31:03;16.43;;;10.53;;
10701;SDS011;5402;50.004;8.246;2024-03-08T13:33:31;15.43;;;9.30;;
10701;SDS011;5402;50.004;8.246;2024-03-08T13:36:00;15.77;;;10.07;;
10701;SDS011;5402;50.004;8.246;2024-03-08T13:38:28;14.80;;;9.70;;
10701;SDS011;5402;50.004;8.246;2024-03-08T13:40:58;15.43;;;10.30;;
10701;SDS011;5402;50.004;8.246;2024-03-08T13:43:25;14.70;;;10.00;;
10701;SDS011;5402;50.004;8.246;2024-03-08T13:45:53;15.37;;;10.07;;
10701;SDS011;5402;50.004;8.246;2024-03-08T13:48:20;15.20;;;10.33;;
10701;SDS011;5402;50.004;8.246;2024-03-08T13:50:47;16.60;;;9.93;;
10701;SDS011;5402;50.004;8.246;2024-03-08T13:53:14;17.43;;;11.20;;
10701;SDS011;5402;50.004;8.246;2024-03-08T13:55:41;16.33;;;9.80;;
10701;SDS011;5402;50.004;8.246;2024-03-08T13:58:09;17.00;;;9.87;;
10701;SDS011;5402;50.004;8.246;2024-03-08T14:00:39;13.67;;;9.50;;
10701;SDS011;5402;50.004;8.246;2024-03-08T14:03:08;17.43;;;10.27;;
10701;SDS011;5402;50.004;8.246;2024-03-08T14:05:38;14.77;;;9.63;;
10701;SDS011;5402;50.004;8.246;2024-03-08T14:08:06;15.67;;;9.43;;
10701;SDS011;5402;50.004;8.246;2024-03-08T14:10:33;14.40;;;9.20;;
10701;SDS011;5402;50.004;8.246;2024-03-08T14:13:02;13.63;;;9.37;;
10701;SDS011;5402;50.004;8.246;2024-03-08T14:15:31;13.10;;;8.87;;
10701;SDS011;5402;50.004;8.246;2024-03-08T14:17:58;15.50;;;9.70;;
10701;SDS011;5402;50.004;8.246;2024-03-08T14:20:25;19.43;;;9.37;;
10701;SDS011;5402;50.004;8.246;2024-03-08T14:22:51;13.27;;;8.97;;
10701;SDS011;5402;50.004;8.246;2024-03-08T14:25:19;14.73;;;10.00;;
10701;SDS011;5402;50.004;8.246;2024-03-08T14:27:49;15.87;;;9.93;;
10701;SDS011;5402;50.004;8.246;2024-03-08T14:30:18;13.93;;;9.23;;
10701;SDS011;5402;50.004;8.246;2024-03-08T14:32:58;15.77;;;9.23;;
10701;SDS011;5402;50.004;8.246;2024-03-08T14:35:25;17.53;;;8.90;;
10701;SDS011;5402;50.004;8.246;2024-03-08T14:37:52;16.77;;;9.80;;
10701;SDS011;5402;50.004;8.246;2024-03-08T14:40:19;13.83;;;9.67;;
10701;SDS011;5402;50.004;8.246;2024-03-08T14:42:47;14.40;;;9.40;;
10701;SDS011;5402;50.004;8.246;2024-03-08T14:45:14;12.30;;;8.47;;